sensor_id;sensor_type;location;lat;lon;timestamp;P1;durP1;ratioP1;P2;durP2;ratioP2
43008;SDS011;28634;45.454;11.106;2022-08-30T00:01:06;9.15;;;7.70;;
43008;SDS011;28634;45.454;11.106;2022-08-30T00:03:44;9.32;;;8.25;;
43008;SDS011;28634;45.454;11.106;2022-08-30T00:06:14;9.10;;;8.30;;
43008;SDS011;28634;45.454;11.106;2022-08-30T00:08:43;11.68;;;8.05;;
43008;SDS011;28634;45.454;11.106;2022-08-30T00:11:12;8.85;;;7.95;;
43008;SDS011;28634;45.454;11.106;2022-08-30T00:13:42;9.00;;;8.00;;
43008;SDS011;28634;45.454;11.106;2022-08-30T00:16:13;9.13;;;8.23;;
43008;SDS011;28634;45.454;11.106;2022-08-30T00:18:46;9.27;;;8.05;;
43008;SDS011;28634;45.454;11.106;2022-08-30T00:21:14;10.60;;;8.07;;
43008;SDS011;28634;45.454;11.106;2022-08-30T00:23:41;9.57;;;8.15;;
43008;SDS011;28634;45.454;11.106;2022-08-30T00:26:08;8.98;;;7.97;;
43008;SDS011;28634;45.454;11.106;2022-08-30T00:28:36;12.10;;;7.90;;
43008;SDS011;28634;45.454;11.106;2022-08-30T00:31:03;9.02;;;7.55;;
43008;SDS011;28634;45.454;11.106;2022-08-30T00:33:31;8.10;;;7.28;;
43008;SDS011;28634;45.454;11.106;2022-08-30T00:36:01;8.38;;;7.57;;
43008;SDS011;28634;45.454;11.106;2022-08-30T00:38:28;9.23;;;7.45;;
43008;SDS011;28634;45.454;11.106;2022-08-30T00:40:55;8.80;;;7.78;;
43008;SDS011;28634;45.454;11.106;2022-08-30T00:43:26;8.45;;;7.57;;
43008;SDS011;28634;45.454;11.106;2022-08-30T00:45:55;8.50;;;7.38;;
43008;SDS011;28634;45.454;11.106;2022-08-30T00:48:23;9.18;;;6.88;;
43008;SDS011;28634;45.454;11.106;2022-08-30T00:50:52;9.30;;;7.90;;
43008;SDS011;28634;45.454;11.106;2022-08-30T00:53:26;8.48;;;6.82;;
43008;SDS011;28634;45.454;11.106;2022-08-30T00:55:56;8.15;;;7.00;;
43008;SDS011;28634;45.454;11.106;2022-08-30T00:58:32;9.20;;;6.75;;
43008;SDS011;28634;45.454;11.106;2022-08-30T01:01:03;7.75;;;6.38;;
43008;SDS011;28634;45.454;11.106;2022-08-30T01:03:33;9.43;;;7.28;;
43008;SDS011;28634;45.454;11.106;2022-08-30T01:06:03;9.93;;;6.97;;
43008;SDS011;28634;45.454;11.106;2022-08-30T01:08:30;7.95;;;6.97;;
43008;SDS011;28634;45.454;11.106;2022-08-30T01:10:58;7.97;;;6.70;;
43008;SDS011;28634;45.454;11.106;2022-08-30T01:13:26;9.90;;;6.95;;
43008;SDS011;28634;45.454;11.106;2022-08-30T01:15:53;7.53;;;6.72;;
43008;SDS011;28634;45.454;11.106;2022-08-30T01:18:21;9.18;;;6.55;;
43008;SDS011;28634;45.454;11.106;2022-08-30T01:23:42;8.02;;;6.82;;
43008;SDS011;28634;45.454;11.106;2022-08-30T01:26:12;7.53;;;6.43;;
43008;SDS011;28634;45.454;11.106;2022-08-30T01:28:41;10.00;;;6.93;;
43008;SDS011;28634;45.454;11.106;2022-08-30T01:31:11;8.43;;;6.72;;
43008;SDS011;28634;45.454;11.106;2022-08-30T01:33:39;8.52;;;6.80;;
43008;SDS011;28634;45.454;11.106;2022-08-30T01:36:10;7.57;;;6.35;;
43008;SDS011;28634;45.454;11.106;2022-08-30T01:38:43;8.77;;;6.40;;
43008;SDS011;28634;45.454;11.106;2022-08-30T01:41:18;7.35;;;6.65;;
43008;SDS011;28634;45.454;11.106;2022-08-30T01:43:54;7.45;;;6.47;;
43008;SDS011;28634;45.454;11.106;2022-08-30T01:46:26;7.28;;;6.38;;
43008;SDS011;28634;45.454;11.106;2022-08-30T01:48:57;7.47;;;6.03;;
43008;SDS011;28634;45.454;11.106;2022-08-30T01:51:25;8.23;;;6.65;;
43008;SDS011;28634;45.454;11.106;2022-08-30T01:53:54;9.02;;;7.20;;
43008;SDS011;28634;45.454;11.106;2022-08-30T01:56:23;8.48;;;6.68;;
43008;SDS011;28634;45.454;11.106;2022-08-30T01:58:51;7.50;;;6.80;;
43008;SDS011;28634;45.454;11.106;2022-08-30T02:01:19;7.15;;;6.30;;
43008;SDS011;28634;45.454;11.106;2022-08-30T02:03:50;7.47;;;6.78;;
43008;SDS011;28634;45.454;11.106;2022-08-30T02:06:20;7.78;;;6.97;;
43008;SDS011;28634;45.454;11.106;2022-08-30T02:08:49;7.55;;;6.63;;
43008;SDS011;28634;45.454;11.106;2022-08-30T02:11:16;8.20;;;6.93;;
43008;SDS011;28634;45.454;11.106;2022-08-30T02:13:44;8.48;;;7.28;;
43008;SDS011;28634;45.454;11.106;2022-08-30T02:16:13;9.57;;;7.28;;
43008;SDS011;28634;45.454;11.106;2022-08-30T02:18:42;10.32;;;7.63;;
43008;SDS011;28634;45.454;11.106;2022-08-30T02:21:10;8.07;;;7.30;;
43008;SDS011;28634;45.454;11.106;2022-08-30T02:23:38;8.85;;;7.88;;
43008;SDS011;28634;45.454;11.106;2022-08-30T02:26:07;8.57;;;7.18;;
43008;SDS011;28634;45.454;11.106;2022-08-30T02:28:35;7.93;;;6.85;;
43008;SDS011;28634;45.454;11.106;2022-08-30T02:31:15;7.88;;;7.07;;
43008;SDS011;28634;45.454;11.106;2022-08-30T02:33:46;8.35;;;6.97;;
43008;SDS011;28634;45.454;11.106;2022-08-30T02:36:15;7.80;;;6.70;;
43008;SDS011;28634;45.454;11.106;2022-08-30T02:38:44;9.18;;;7.45;;
43008;SDS011;28634;45.454;11.106;2022-08-30T02:41:12;8.13;;;6.95;;
43008;SDS011;28634;45.454;11.106;2022-08-30T02:43:40;10.23;;;7.13;;
43008;SDS011;28634;45.454;11.106;2022-08-30T02:46:07;8.02;;;7.07;;
43008;SDS011;28634;45.454;11.106;2022-08-30T02:48:34;8.30;;;7.45;;
43008;SDS011;28634;45.454;11.106;2022-08-30T02:51:06;9.68;;;7.88;;
43008;SDS011;28634;45.454;11.106;2022-08-30T02:53:37;8.93;;;8.00;;
43008;SDS011;28634;45.454;11.106;2022-08-30T02:56:08;8.20;;;7.40;;
43008;SDS011;28634;45.454;11.106;2022-08-30T02:58:37;9.13;;;7.45;;
43008;SDS011;28634;45.454;11.106;2022-08-30T03:01:05;9.13;;;7.53;;
43008;SDS011;28634;45.454;11.106;2022-08-30T03:03:32;8.82;;;7.90;;
43008;SDS011;28634;45.454;11.106;2022-08-30T03:06:00;7.95;;;7.00;;
43008;SDS011;28634;45.454;11.106;2022-08-30T03:08:29;9.68;;;7.78;;
43008;SDS011;28634;45.454;11.106;2022-08-30T03:10:57;9.45;;;7.70;;
43008;SDS011;28634;45.454;11.106;2022-08-30T03:13:25;7.90;;;7.13;;
43008;SDS011;28634;45.454;11.106;2022-08-30T03:15:52;9.75;;;7.40;;
43008;SDS011;28634;45.454;11.106;2022-08-30T03:18:20;8.52;;;7.63;;
43008;SDS011;28634;45.454;11.106;2022-08-30T03:20:47;10.52;;;9.43;;
43008;SDS011;28634;45.454;11.106;2022-08-30T03:23:20;11.50;;;8.05;;
43008;SDS011;28634;45.454;11.106;2022-08-30T03:25:49;9.07;;;8.18;;
43008;SDS011;28634;45.454;11.106;2022-08-30T03:28:17;9.63;;;8.73;;
43008;SDS011;28634;45.454;11.106;2022-08-30T03:30:44;8.90;;;7.97;;
43008;SDS011;28634;45.454;11.106;2022-08-30T03:33:13;8.88;;;8.07;;
43008;SDS011;28634;45.454;11.106;2022-08-30T03:35:40;9.90;;;8.15;;
43008;SDS011;28634;45.454;11.106;2022-08-30T03:38:08;11.60;;;9.00;;
43008;SDS011;28634;45.454;11.106;2022-08-30T03:40:35;11.20;;;10.10;;
43008;SDS011;28634;45.454;11.106;2022-08-30T03:43:03;12.27;;;9.80;;
43008;SDS011;28634;45.454;11.106;2022-08-30T03:45:30;12.27;;;9.73;;
43008;SDS011;28634;45.454;11.106;2022-08-30T03:47:58;11.63;;;10.35;;
43008;SDS011;28634;45.454;11.106;2022-08-30T03:50:25;8.18;;;7.28;;
43008;SDS011;28634;45.454;11.106;2022-08-30T03:52:52;8.70;;;7.00;;
43008;SDS011;28634;45.454;11.106;2022-08-30T03:55:19;8.10;;;6.47;;
43008;SDS011;28634;45.454;11.106;2022-08-30T03:57:46;9.32;;;6.55;;
43008;SDS011;28634;45.454;11.106;2022-08-30T04:00:17;6.90;;;5.60;;
43008;SDS011;28634;45.454;11.106;2022-08-30T04:02:44;8.05;;;5.82;;
43008;SDS011;28634;45.454;11.106;2022-08-30T04:05:12;6.93;;;5.70;;
43008;SDS011;28634;45.454;11.106;2022-08-30T04:07:43;7.03;;;6.13;;
43008;SDS011;28634;45.454;11.106;2022-08-30T04:10:11;7.20;;;5.53;;
43008;SDS011;28634;45.454;11.106;2022-08-30T04:12:38;7.55;;;6.20;;
43008;SDS011;28634;45.454;11.106;2022-08-30T04:15:10;6.60;;;5.90;;
43008;SDS011;28634;45.454;11.106;2022-08-30T04:17:37;7.32;;;5.38;;
43008;SDS011;28634;45.454;11.106;2022-08-30T04:20:05;11.35;;;5.75;;
43008;SDS011;28634;45.454;11.106;2022-08-30T04:22:33;5.68;;;4.88;;
43008;SDS011;28634;45.454;11.106;2022-08-30T04:25:00;5.05;;;4.55;;
43008;SDS011;28634;45.454;11.106;2022-08-30T04:27:28;5.00;;;4.47;;
43008;SDS011;28634;45.454;11.106;2022-08-30T04:29:55;4.85;;;4.00;;
43008;SDS011;28634;45.454;11.106;2022-08-30T04:32:23;5.97;;;4.20;;
43008;SDS011;28634;45.454;11.106;2022-08-30T04:34:55;5.22;;;3.60;;
43008;SDS011;28634;45.454;11.106;2022-08-30T04:37:23;6.00;;;3.90;;
43008;SDS011;28634;45.454;11.106;2022-08-30T04:39:54;5.28;;;3.70;;
43008;SDS011;28634;45.454;11.106;2022-08-30T04:42:23;4.97;;;4.07;;
43008;SDS011;28634;45.454;11.106;2022-08-30T04:44:50;4.72;;;3.67;;
43008;SDS011;28634;45.454;11.106;2022-08-30T04:47:17;5.35;;;3.45;;
43008;SDS011;28634;45.454;11.106;2022-08-30T04:49:44;5.32;;;3.80;;
43008;SDS011;28634;45.454;11.106;2022-08-30T04:52:11;5.05;;;3.78;;
43008;SDS011;28634;45.454;11.106;2022-08-30T04:54:38;4.95;;;4.07;;
43008;SDS011;28634;45.454;11.106;2022-08-30T04:57:06;5.43;;;3.88;;
43008;SDS011;28634;45.454;11.106;2022-08-30T04:59:33;4.20;;;3.70;;
43008;SDS011;28634;45.454;11.106;2022-08-30T05:02:00;4.75;;;3.47;;
43008;SDS011;28634;45.454;11.106;2022-08-30T05:04:27;4.57;;;3.55;;
43008;SDS011;28634;45.454;11.106;2022-08-30T05:06:54;4.72;;;3.45;;
43008;SDS011;28634;45.454;11.106;2022-08-30T05:09:22;5.57;;;3.53;;
43008;SDS011;28634;45.454;11.106;2022-08-30T05:11:49;3.88;;;3.20;;
43008;SDS011;28634;45.454;11.106;2022-08-30T05:14:17;5.53;;;3.35;;
43008;SDS011;28634;45.454;11.106;2022-08-30T05:16:44;4.07;;;3.08;;
43008;SDS011;28634;45.454;11.106;2022-08-30T05:19:12;5.05;;;3.65;;
43008;SDS011;28634;45.454;11.106;2022-08-30T05:21:39;4.50;;;3.50;;
43008;SDS011;28634;45.454;11.106;2022-08-30T05:24:06;3.90;;;3.33;;
43008;SDS011;28634;45.454;11.106;2022-08-30T05:26:33;4.28;;;3.20;;
43008;SDS011;28634;45.454;11.106;2022-08-30T05:29:06;3.45;;;3.03;;
43008;SDS011;28634;45.454;11.106;2022-08-30T05:31:34;4.22;;;2.97;;
43008;SDS011;28634;45.454;11.106;2022-08-30T05:34:02;7.57;;;3.78;;
43008;SDS011;28634;45.454;11.106;2022-08-30T05:36:30;4.80;;;3.63;;
43008;SDS011;28634;45.454;11.106;2022-08-30T05:39:00;3.35;;;2.80;;
43008;SDS011;28634;45.454;11.106;2022-08-30T05:41:31;3.50;;;3.13;;
43008;SDS011;28634;45.454;11.106;2022-08-30T05:43:59;5.13;;;3.33;;
43008;SDS011;28634;45.454;11.106;2022-08-30T05:46:28;5.47;;;3.80;;
43008;SDS011;28634;45.454;11.106;2022-08-30T05:48:58;5.60;;;3.40;;
43008;SDS011;28634;45.454;11.106;2022-08-30T05:51:30;5.75;;;3.90;;
43008;SDS011;28634;45.454;11.106;2022-08-30T05:54:00;6.70;;;3.72;;
43008;SDS011;28634;45.454;11.106;2022-08-30T05:56:30;6.60;;;3.78;;
43008;SDS011;28634;45.454;11.106;2022-08-30T05:58:59;5.50;;;3.47;;
43008;SDS011;28634;45.454;11.106;2022-08-30T06:01:28;6.03;;;5.40;;
43008;SDS011;28634;45.454;11.106;2022-08-30T06:03:59;3.80;;;3.40;;
43008;SDS011;28634;45.454;11.106;2022-08-30T06:06:29;4.35;;;2.80;;
43008;SDS011;28634;45.454;11.106;2022-08-30T06:08:58;5.53;;;3.58;;
43008;SDS011;28634;45.454;11.106;2022-08-30T06:11:26;3.72;;;2.83;;
43008;SDS011;28634;45.454;11.106;2022-08-30T06:13:53;4.30;;;2.90;;
43008;SDS011;28634;45.454;11.106;2022-08-30T06:16:22;4.85;;;2.88;;
43008;SDS011;28634;45.454;11.106;2022-08-30T06:18:53;5.82;;;3.03;;
43008;SDS011;28634;45.454;11.106;2022-08-30T06:21:23;5.65;;;3.22;;
43008;SDS011;28634;45.454;11.106;2022-08-30T06:23:56;6.22;;;3.58;;
43008;SDS011;28634;45.454;11.106;2022-08-30T06:26:24;5.03;;;3.30;;
43008;SDS011;28634;45.454;11.106;2022-08-30T06:28:53;5.30;;;3.22;;
43008;SDS011;28634;45.454;11.106;2022-08-30T06:31:21;5.88;;;3.33;;
43008;SDS011;28634;45.454;11.106;2022-08-30T06:33:50;7.28;;;3.13;;
43008;SDS011;28634;45.454;11.106;2022-08-30T06:36:19;8.15;;;3.40;;
43008;SDS011;28634;45.454;11.106;2022-08-30T06:38:50;5.15;;;3.00;;
43008;SDS011;28634;45.454;11.106;2022-08-30T06:41:23;4.68;;;3.33;;
43008;SDS011;28634;45.454;11.106;2022-08-30T06:43:53;5.85;;;3.58;;
43008;SDS011;28634;45.454;11.106;2022-08-30T06:46:22;4.05;;;3.50;;
43008;SDS011;28634;45.454;11.106;2022-08-30T06:48:54;5.40;;;3.63;;
43008;SDS011;28634;45.454;11.106;2022-08-30T06:51:23;6.32;;;3.85;;
43008;SDS011;28634;45.454;11.106;2022-08-30T06:53:54;5.50;;;2.90;;
43008;SDS011;28634;45.454;11.106;2022-08-30T06:56:22;4.15;;;3.10;;
43008;SDS011;28634;45.454;11.106;2022-08-30T06:58:52;5.32;;;3.00;;
43008;SDS011;28634;45.454;11.106;2022-08-30T07:01:21;4.20;;;3.10;;
43008;SDS011;28634;45.454;11.106;2022-08-30T07:03:51;4.00;;;3.13;;
43008;SDS011;28634;45.454;11.106;2022-08-30T07:06:19;4.65;;;3.28;;
43008;SDS011;28634;45.454;11.106;2022-08-30T07:08:46;5.25;;;3.03;;
43008;SDS011;28634;45.454;11.106;2022-08-30T07:11:28;3.78;;;2.88;;
43008;SDS011;28634;45.454;11.106;2022-08-30T07:13:59;5.32;;;3.30;;
43008;SDS011;28634;45.454;11.106;2022-08-30T07:16:28;3.95;;;2.80;;
43008;SDS011;28634;45.454;11.106;2022-08-30T07:18:56;6.03;;;3.00;;
43008;SDS011;28634;45.454;11.106;2022-08-30T07:21:26;5.88;;;3.03;;
43008;SDS011;28634;45.454;11.106;2022-08-30T07:23:59;5.50;;;3.15;;
43008;SDS011;28634;45.454;11.106;2022-08-30T07:26:28;5.75;;;2.85;;
43008;SDS011;28634;45.454;11.106;2022-08-30T07:28:58;7.32;;;2.60;;
43008;SDS011;28634;45.454;11.106;2022-08-30T07:31:26;3.13;;;2.65;;
43008;SDS011;28634;45.454;11.106;2022-08-30T07:33:54;5.40;;;2.70;;
43008;SDS011;28634;45.454;11.106;2022-08-30T07:36:24;5.55;;;2.40;;
43008;SDS011;28634;45.454;11.106;2022-08-30T07:38:52;7.03;;;2.70;;
43008;SDS011;28634;45.454;11.106;2022-08-30T07:41:23;4.85;;;2.85;;
43008;SDS011;28634;45.454;11.106;2022-08-30T07:43:53;3.90;;;2.72;;
43008;SDS011;28634;45.454;11.106;2022-08-30T07:46:20;3.17;;;2.72;;
43008;SDS011;28634;45.454;11.106;2022-08-30T07:48:51;4.32;;;2.70;;
43008;SDS011;28634;45.454;11.106;2022-08-30T07:51:23;4.32;;;2.63;;
43008;SDS011;28634;45.454;11.106;2022-08-30T07:53:51;5.93;;;3.33;;
43008;SDS011;28634;45.454;11.106;2022-08-30T07:56:19;3.60;;;2.75;;
43008;SDS011;28634;45.454;11.106;2022-08-30T07:58:47;5.90;;;3.03;;
43008;SDS011;28634;45.454;11.106;2022-08-30T08:01:17;5.22;;;2.78;;
43008;SDS011;28634;45.454;11.106;2022-08-30T08:03:46;3.70;;;2.50;;
43008;SDS011;28634;45.454;11.106;2022-08-30T08:06:16;4.22;;;2.75;;
43008;SDS011;28634;45.454;11.106;2022-08-30T08:08:46;10.30;;;3.75;;
43008;SDS011;28634;45.454;11.106;2022-08-30T08:11:16;5.28;;;2.80;;
43008;SDS011;28634;45.454;11.106;2022-08-30T08:13:49;4.20;;;2.50;;
43008;SDS011;28634;45.454;11.106;2022-08-30T08:16:23;3.00;;;2.40;;
43008;SDS011;28634;45.454;11.106;2022-08-30T08:18:54;4.03;;;2.50;;
43008;SDS011;28634;45.454;11.106;2022-08-30T08:21:22;3.83;;;2.30;;
43008;SDS011;28634;45.454;11.106;2022-08-30T08:23:50;4.18;;;2.83;;
43008;SDS011;28634;45.454;11.106;2022-08-30T08:26:19;6.20;;;2.85;;
43008;SDS011;28634;45.454;11.106;2022-08-30T08:28:47;6.32;;;2.80;;
43008;SDS011;28634;45.454;11.106;2022-08-30T08:31:19;5.75;;;3.15;;
43008;SDS011;28634;45.454;11.106;2022-08-30T08:33:57;4.43;;;2.80;;
43008;SDS011;28634;45.454;11.106;2022-08-30T08:36:26;6.18;;;2.85;;
43008;SDS011;28634;45.454;11.106;2022-08-30T08:38:55;4.78;;;2.60;;
43008;SDS011;28634;45.454;11.106;2022-08-30T08:41:34;4.57;;;2.58;;
43008;SDS011;28634;45.454;11.106;2022-08-30T08:47:49;6.30;;;3.13;;
43008;SDS011;28634;45.454;11.106;2022-08-30T08:50:26;4.60;;;3.15;;
43008;SDS011;28634;45.454;11.106;2022-08-30T08:53:17;5.53;;;3.30;;
43008;SDS011;28634;45.454;11.106;2022-08-30T08:56:13;4.82;;;3.25;;
43008;SDS011;28634;45.454;11.106;2022-08-30T08:58:45;4.68;;;3.22;;
43008;SDS011;28634;45.454;11.106;2022-08-30T09:01:15;3.95;;;3.22;;
43008;SDS011;28634;45.454;11.106;2022-08-30T09:03:44;3.67;;;2.83;;
43008;SDS011;28634;45.454;11.106;2022-08-30T09:09:07;5.53;;;3.42;;
43008;SDS011;28634;45.454;11.106;2022-08-30T09:11:35;5.20;;;3.83;;
43008;SDS011;28634;45.454;11.106;2022-08-30T09:14:11;5.00;;;3.80;;
43008;SDS011;28634;45.454;11.106;2022-08-30T09:25:07;5.50;;;4.47;;
43008;SDS011;28634;45.454;11.106;2022-08-30T09:27:40;8.10;;;4.30;;
43008;SDS011;28634;45.454;11.106;2022-08-30T09:30:30;4.53;;;3.70;;
43008;SDS011;28634;45.454;11.106;2022-08-30T09:32:58;4.75;;;3.53;;
43008;SDS011;28634;45.454;11.106;2022-08-30T09:35:40;7.72;;;3.80;;
43008;SDS011;28634;45.454;11.106;2022-08-30T09:38:10;5.25;;;3.70;;
43008;SDS011;28634;45.454;11.106;2022-08-30T09:40:53;5.25;;;3.92;;
43008;SDS011;28634;45.454;11.106;2022-08-30T09:43:24;4.22;;;3.50;;
43008;SDS011;28634;45.454;11.106;2022-08-30T09:48:30;6.28;;;3.92;;
43008;SDS011;28634;45.454;11.106;2022-08-30T09:53:38;4.72;;;3.83;;
43008;SDS011;28634;45.454;11.106;2022-08-30T10:07:53;6.07;;;4.13;;
43008;SDS011;28634;45.454;11.106;2022-08-30T10:13:21;5.30;;;4.00;;
43008;SDS011;28634;45.454;11.106;2022-08-30T10:19:17;5.28;;;4.05;;
43008;SDS011;28634;45.454;11.106;2022-08-30T10:22:13;6.65;;;4.18;;
43008;SDS011;28634;45.454;11.106;2022-08-30T10:24:49;5.05;;;3.70;;
43008;SDS011;28634;45.454;11.106;2022-08-30T10:27:25;5.35;;;4.28;;
43008;SDS011;28634;45.454;11.106;2022-08-30T10:29:59;6.20;;;4.07;;
43008;SDS011;28634;45.454;11.106;2022-08-30T10:32:47;6.40;;;4.30;;
43008;SDS011;28634;45.454;11.106;2022-08-30T10:37:54;5.18;;;4.32;;
43008;SDS011;28634;45.454;11.106;2022-08-30T10:40:31;5.07;;;3.67;;
43008;SDS011;28634;45.454;11.106;2022-08-30T10:43:33;5.80;;;4.43;;
43008;SDS011;28634;45.454;11.106;2022-08-30T10:46:28;5.45;;;4.07;;
43008;SDS011;28634;45.454;11.106;2022-08-30T10:48:55;5.70;;;4.15;;
43008;SDS011;28634;45.454;11.106;2022-08-30T10:51:30;6.68;;;4.25;;
43008;SDS011;28634;45.454;11.106;2022-08-30T10:56:44;4.53;;;3.90;;
43008;SDS011;28634;45.454;11.106;2022-08-30T10:59:18;4.88;;;4.25;;
43008;SDS011;28634;45.454;11.106;2022-08-30T11:01:55;6.05;;;3.97;;
43008;SDS011;28634;45.454;11.106;2022-08-30T11:04:51;5.25;;;4.15;;
43008;SDS011;28634;45.454;11.106;2022-08-30T11:11:10;6.18;;;4.60;;
43008;SDS011;28634;45.454;11.106;2022-08-30T11:14:00;5.78;;;3.90;;
43008;SDS011;28634;45.454;11.106;2022-08-30T11:16:35;5.82;;;4.32;;
43008;SDS011;28634;45.454;11.106;2022-08-30T11:19:13;5.90;;;4.18;;
43008;SDS011;28634;45.454;11.106;2022-08-30T11:22:12;5.80;;;4.00;;
43008;SDS011;28634;45.454;11.106;2022-08-30T11:28:04;5.45;;;4.22;;
43008;SDS011;28634;45.454;11.106;2022-08-30T11:33:08;4.47;;;3.40;;
43008;SDS011;28634;45.454;11.106;2022-08-30T11:36:12;5.45;;;4.00;;
43008;SDS011;28634;45.454;11.106;2022-08-30T11:42:24;8.15;;;4.10;;
43008;SDS011;28634;45.454;11.106;2022-08-30T11:47:55;5.53;;;3.55;;
43008;SDS011;28634;45.454;11.106;2022-08-30T11:50:30;6.13;;;3.80;;
43008;SDS011;28634;45.454;11.106;2022-08-30T11:59:09;7.15;;;3.83;;
43008;SDS011;28634;45.454;11.106;2022-08-30T12:01:51;4.10;;;3.70;;
43008;SDS011;28634;45.454;11.106;2022-08-30T12:06:53;4.55;;;3.75;;
43008;SDS011;28634;45.454;11.106;2022-08-30T12:11:55;4.40;;;3.83;;
43008;SDS011;28634;45.454;11.106;2022-08-30T12:17:31;5.40;;;4.00;;
43008;SDS011;28634;45.454;11.106;2022-08-30T12:20:45;6.05;;;3.80;;
43008;SDS011;28634;45.454;11.106;2022-08-30T12:29:10;4.93;;;3.65;;
43008;SDS011;28634;45.454;11.106;2022-08-30T12:31:58;4.93;;;4.05;;
43008;SDS011;28634;45.454;11.106;2022-08-30T12:39:38;6.03;;;4.03;;
43008;SDS011;28634;45.454;11.106;2022-08-30T12:44:53;5.93;;;3.70;;
43008;SDS011;28634;45.454;11.106;2022-08-30T12:47:25;4.82;;;4.22;;
43008;SDS011;28634;45.454;11.106;2022-08-30T12:50:14;4.80;;;4.22;;
43008;SDS011;28634;45.454;11.106;2022-08-30T12:52:54;6.63;;;4.10;;
43008;SDS011;28634;45.454;11.106;2022-08-30T12:55:31;4.80;;;4.30;;
43008;SDS011;28634;45.454;11.106;2022-08-30T12:58:08;5.03;;;3.78;;
43008;SDS011;28634;45.454;11.106;2022-08-30T13:00:37;4.97;;;3.95;;
43008;SDS011;28634;45.454;11.106;2022-08-30T13:03:26;7.07;;;4.60;;
43008;SDS011;28634;45.454;11.106;2022-08-30T13:06:04;6.72;;;4.30;;
43008;SDS011;28634;45.454;11.106;2022-08-30T13:11:08;6.22;;;4.95;;
43008;SDS011;28634;45.454;11.106;2022-08-30T13:13:49;6.63;;;4.20;;
43008;SDS011;28634;45.454;11.106;2022-08-30T13:18:51;5.55;;;4.65;;
43008;SDS011;28634;45.454;11.106;2022-08-30T13:21:30;5.70;;;4.60;;
43008;SDS011;28634;45.454;11.106;2022-08-30T13:24:03;7.43;;;4.50;;
43008;SDS011;28634;45.454;11.106;2022-08-30T13:26:35;4.45;;;4.03;;
43008;SDS011;28634;45.454;11.106;2022-08-30T13:29:05;22.63;;;5.47;;
43008;SDS011;28634;45.454;11.106;2022-08-30T13:31:39;8.00;;;4.75;;
43008;SDS011;28634;45.454;11.106;2022-08-30T13:34:06;7.07;;;5.00;;
43008;SDS011;28634;45.454;11.106;2022-08-30T13:36:34;5.38;;;4.88;;
43008;SDS011;28634;45.454;11.106;2022-08-30T13:39:03;5.75;;;4.85;;
43008;SDS011;28634;45.454;11.106;2022-08-30T13:41:31;6.57;;;4.53;;
43008;SDS011;28634;45.454;11.106;2022-08-30T13:44:00;6.57;;;4.30;;
43008;SDS011;28634;45.454;11.106;2022-08-30T13:46:47;5.65;;;4.38;;
43008;SDS011;28634;45.454;11.106;2022-08-30T13:52:15;7.45;;;4.53;;
43008;SDS011;28634;45.454;11.106;2022-08-30T13:54:50;6.30;;;4.28;;
43008;SDS011;28634;45.454;11.106;2022-08-30T13:57:20;7.00;;;4.93;;
43008;SDS011;28634;45.454;11.106;2022-08-30T14:00:12;6.80;;;4.60;;
43008;SDS011;28634;45.454;11.106;2022-08-30T14:02:45;5.75;;;4.80;;
43008;SDS011;28634;45.454;11.106;2022-08-30T14:05:21;5.13;;;4.07;;
43008;SDS011;28634;45.454;11.106;2022-08-30T14:08:12;5.65;;;4.00;;
43008;SDS011;28634;45.454;11.106;2022-08-30T14:11:00;6.30;;;3.90;;
43008;SDS011;28634;45.454;11.106;2022-08-30T14:13:27;5.75;;;4.45;;
43008;SDS011;28634;45.454;11.106;2022-08-30T14:15:55;7.15;;;5.47;;
43008;SDS011;28634;45.454;11.106;2022-08-30T14:18:45;7.38;;;5.35;;
43008;SDS011;28634;45.454;11.106;2022-08-30T14:21:12;8.98;;;5.60;;
43008;SDS011;28634;45.454;11.106;2022-08-30T14:23:39;8.13;;;4.80;;
43008;SDS011;28634;45.454;11.106;2022-08-30T14:26:14;9.25;;;4.85;;
43008;SDS011;28634;45.454;11.106;2022-08-30T14:28:43;6.35;;;4.85;;
43008;SDS011;28634;45.454;11.106;2022-08-30T14:31:16;6.28;;;4.50;;
43008;SDS011;28634;45.454;11.106;2022-08-30T14:33:45;8.27;;;5.80;;
43008;SDS011;28634;45.454;11.106;2022-08-30T14:36:12;11.70;;;5.68;;
43008;SDS011;28634;45.454;11.106;2022-08-30T14:38:41;6.40;;;5.68;;
43008;SDS011;28634;45.454;11.106;2022-08-30T14:41:10;9.38;;;6.43;;
43008;SDS011;28634;45.454;11.106;2022-08-30T14:43:37;8.38;;;6.03;;
43008;SDS011;28634;45.454;11.106;2022-08-30T14:46:06;7.88;;;5.72;;
43008;SDS011;28634;45.454;11.106;2022-08-30T14:48:36;7.00;;;6.30;;
43008;SDS011;28634;45.454;11.106;2022-08-30T14:51:14;6.80;;;5.90;;
43008;SDS011;28634;45.454;11.106;2022-08-30T14:53:44;7.28;;;6.43;;
43008;SDS011;28634;45.454;11.106;2022-08-30T14:56:13;8.23;;;5.13;;
43008;SDS011;28634;45.454;11.106;2022-08-30T14:58:46;9.10;;;6.20;;
43008;SDS011;28634;45.454;11.106;2022-08-30T15:01:17;7.05;;;5.35;;
43008;SDS011;28634;45.454;11.106;2022-08-30T15:03:45;11.40;;;6.20;;
43008;SDS011;28634;45.454;11.106;2022-08-30T15:06:12;7.30;;;5.30;;
43008;SDS011;28634;45.454;11.106;2022-08-30T15:08:41;6.53;;;5.40;;
43008;SDS011;28634;45.454;11.106;2022-08-30T15:11:13;8.73;;;5.72;;
43008;SDS011;28634;45.454;11.106;2022-08-30T15:13:42;8.13;;;5.38;;
43008;SDS011;28634;45.454;11.106;2022-08-30T15:16:14;10.52;;;5.95;;
43008;SDS011;28634;45.454;11.106;2022-08-30T15:18:44;7.80;;;6.13;;
43008;SDS011;28634;45.454;11.106;2022-08-30T15:21:11;11.05;;;5.72;;
43008;SDS011;28634;45.454;11.106;2022-08-30T15:23:40;9.95;;;5.00;;
43008;SDS011;28634;45.454;11.106;2022-08-30T15:26:07;9.15;;;6.32;;
43008;SDS011;28634;45.454;11.106;2022-08-30T15:28:35;9.10;;;6.05;;
43008;SDS011;28634;45.454;11.106;2022-08-30T15:31:02;10.02;;;6.55;;
43008;SDS011;28634;45.454;11.106;2022-08-30T15:33:34;8.52;;;6.22;;
43008;SDS011;28634;45.454;11.106;2022-08-30T15:36:02;8.90;;;6.20;;
43008;SDS011;28634;45.454;11.106;2022-08-30T15:38:31;8.50;;;5.82;;
43008;SDS011;28634;45.454;11.106;2022-08-30T15:41:00;7.28;;;5.75;;
43008;SDS011;28634;45.454;11.106;2022-08-30T15:43:29;6.35;;;5.60;;
43008;SDS011;28634;45.454;11.106;2022-08-30T15:46:12;10.02;;;6.05;;
43008;SDS011;28634;45.454;11.106;2022-08-30T15:48:43;7.10;;;5.43;;
43008;SDS011;28634;45.454;11.106;2022-08-30T15:51:11;12.65;;;5.90;;
43008;SDS011;28634;45.454;11.106;2022-08-30T15:53:38;11.90;;;5.65;;
43008;SDS011;28634;45.454;11.106;2022-08-30T15:56:06;6.55;;;4.85;;
43008;SDS011;28634;45.454;11.106;2022-08-30T15:58:33;7.43;;;5.30;;
43008;SDS011;28634;45.454;11.106;2022-08-30T16:01:00;8.32;;;5.45;;
43008;SDS011;28634;45.454;11.106;2022-08-30T16:03:30;8.82;;;5.47;;
43008;SDS011;28634;45.454;11.106;2022-08-30T16:05:59;11.18;;;5.53;;
43008;SDS011;28634;45.454;11.106;2022-08-30T16:08:27;12.23;;;5.70;;
43008;SDS011;28634;45.454;11.106;2022-08-30T16:10:54;12.48;;;5.78;;
43008;SDS011;28634;45.454;11.106;2022-08-30T16:13:22;10.25;;;5.30;;
43008;SDS011;28634;45.454;11.106;2022-08-30T16:15:49;9.75;;;5.80;;
43008;SDS011;28634;45.454;11.106;2022-08-30T16:18:17;10.10;;;6.30;;
43008;SDS011;28634;45.454;11.106;2022-08-30T16:20:44;8.40;;;5.90;;
43008;SDS011;28634;45.454;11.106;2022-08-30T16:23:11;8.27;;;5.60;;
43008;SDS011;28634;45.454;11.106;2022-08-30T16:25:38;8.70;;;6.10;;
43008;SDS011;28634;45.454;11.106;2022-08-30T16:28:06;11.45;;;6.30;;
43008;SDS011;28634;45.454;11.106;2022-08-30T16:30:35;8.80;;;6.30;;
43008;SDS011;28634;45.454;11.106;2022-08-30T16:33:02;8.30;;;5.93;;
43008;SDS011;28634;45.454;11.106;2022-08-30T16:35:31;10.07;;;6.43;;